Terminal Aerodrome Forecast
Issued by NWS

Home | Current Version | Previous Version | Text Only | Print | Product List | Glossary On
Versions: 1 2 3 4 5 6 7 8 9 10 11 12
843
FTUS45 KPIH 242321
TAFSUN
TAF
KSUN 242321Z 2500/2606 13008KT P6SM SKC
     FM250400 31010KT P6SM SKC
     FM251800 13008KT P6SM SKC
     FM260400 31010KT P6SM SKC
      AMD LTD TO CLD VIS AND WIND 2505/2513=

USA.gov is the U.S. government's official web portal to all federal, state and local government web resources and services.